createdAt,value
2018-07-23T00:01:48.153Z,16.00
2018-07-23T00:04:16.219Z,16.00
2018-07-23T00:06:44.293Z,16.00
2018-07-23T00:09:12.500Z,15.90
2018-07-23T00:11:40.531Z,15.90
2018-07-23T00:14:08.723Z,15.90
2018-07-23T00:16:36.809Z,15.90
2018-07-23T00:19:04.956Z,15.90
2018-07-23T00:21:33.244Z,15.90
2018-07-23T00:24:01.320Z,15.90
2018-07-23T00:26:29.377Z,15.90
2018-07-23T00:28:57.464Z,15.90
2018-07-23T00:31:25.677Z,15.90
2018-07-23T00:33:53.794Z,15.80
2018-07-23T00:36:22.109Z,15.80
2018-07-23T00:38:50.173Z,15.80
2018-07-23T00:41:18.361Z,15.80
2018-07-23T00:43:46.411Z,15.80
2018-07-23T00:46:14.469Z,15.80
2018-07-23T00:48:43.048Z,15.80
2018-07-23T00:53:39.039Z,15.80
2018-07-23T00:56:07.098Z,15.80
2018-07-23T00:58:35.194Z,15.80
2018-07-23T01:01:03.220Z,15.80
2018-07-23T01:03:31.308Z,15.80
2018-07-23T01:05:59.493Z,15.90
2018-07-23T01:08:27.564Z,15.90
2018-07-23T01:10:55.643Z,15.90
2018-07-23T01:13:23.722Z,15.90
2018-07-23T01:15:51.776Z,15.90
2018-07-23T01:18:19.828Z,15.90
2018-07-23T01:20:47.936Z,16.00
2018-07-23T01:23:16.024Z,16.00
2018-07-23T01:25:44.050Z,16.00
2018-07-23T01:28:12.413Z,16.10
2018-07-23T01:33:08.476Z,16.10
2018-07-23T01:35:36.581Z,16.10
2018-07-23T01:38:04.723Z,16.10
2018-07-23T01:40:32.916Z,16.10
2018-07-23T01:43:01.201Z,16.20
2018-07-23T01:45:29.356Z,16.20
2018-07-23T01:47:58.056Z,16.10
2018-07-23T01:50:26.207Z,16.20
2018-07-23T01:55:22.092Z,16.20
2018-07-23T01:57:50.212Z,16.20
2018-07-23T02:02:46.377Z,16.20
2018-07-23T02:05:14.558Z,16.20
2018-07-23T02:07:42.652Z,16.20
2018-07-23T02:10:10.712Z,16.20
2018-07-23T02:12:39.043Z,16.20
2018-07-23T02:15:07.171Z,16.20
2018-07-23T02:17:35.236Z,16.10
2018-07-23T02:20:04.081Z,16.10
2018-07-23T02:22:32.217Z,16.20
2018-07-23T02:25:00.263Z,16.20
2018-07-23T02:27:28.393Z,16.20
2018-07-23T02:29:56.400Z,16.20
2018-07-23T02:34:52.657Z,16.20
2018-07-23T02:37:20.773Z,16.20
2018-07-23T02:39:48.690Z,16.20
2018-07-23T02:44:44.882Z,16.10
2018-07-23T02:47:13.014Z,16.10
2018-07-23T02:52:18.204Z,16.10
2018-07-23T02:54:49.306Z,16.10
2018-07-23T02:57:25.420Z,16.00
2018-07-23T02:59:56.337Z,16.00
2018-07-23T03:02:26.590Z,16.00
2018-07-23T03:04:57.809Z,16.00
2018-07-23T03:07:26.072Z,16.00
2018-07-23T03:09:54.249Z,15.90
2018-07-23T03:12:22.765Z,15.90
2018-07-23T03:14:51.061Z,15.90
2018-07-23T03:17:19.102Z,15.90
2018-07-23T03:19:47.180Z,15.90
2018-07-23T03:22:15.261Z,15.90
2018-07-23T03:24:43.314Z,15.80
2018-07-23T03:27:11.677Z,15.80
2018-07-23T03:32:07.844Z,15.80
2018-07-23T03:37:04.019Z,15.80
2018-07-23T03:39:32.190Z,15.90
2018-07-23T03:42:00.252Z,15.90
2018-07-23T03:44:28.440Z,15.90
2018-07-23T03:46:56.581Z,15.90
2018-07-23T03:49:24.673Z,15.90
2018-07-23T03:51:52.933Z,15.90
2018-07-23T03:54:21.032Z,16.00
2018-07-23T03:56:49.102Z,16.00
2018-07-23T03:59:17.191Z,16.00
2018-07-23T04:01:45.359Z,16.00
2018-07-23T04:04:16.229Z,16.10
2018-07-23T04:06:46.144Z,16.10
2018-07-23T04:09:14.148Z,16.10
2018-07-23T04:14:13.085Z,16.10
2018-07-23T04:16:41.088Z,16.20
2018-07-23T04:19:09.342Z,16.20
2018-07-23T04:21:37.508Z,16.20
2018-07-23T04:24:05.735Z,16.20
2018-07-23T04:26:33.859Z,16.30
2018-07-23T04:29:01.907Z,16.30
2018-07-23T04:33:57.867Z,16.40
2018-07-23T04:36:25.981Z,16.40
2018-07-23T04:38:54.031Z,16.50
2018-07-23T04:41:22.094Z,16.60
2018-07-23T04:43:50.178Z,16.60
2018-07-23T04:46:18.397Z,16.70
2018-07-23T04:48:46.532Z,16.70
2018-07-23T04:51:14.574Z,16.70
2018-07-23T04:53:42.652Z,16.70
2018-07-23T04:56:10.721Z,16.80
2018-07-23T04:58:38.909Z,16.80
2018-07-23T05:01:06.964Z,16.80
2018-07-23T05:03:35.164Z,16.80
2018-07-23T05:06:03.530Z,16.80
2018-07-23T05:08:31.644Z,16.70
2018-07-23T05:10:59.889Z,16.70
2018-07-23T05:13:28.074Z,16.70
2018-07-23T05:15:56.183Z,16.70
2018-07-23T05:18:24.193Z,16.80
2018-07-23T05:20:52.283Z,16.80
2018-07-23T05:23:20.364Z,16.80
2018-07-23T05:25:48.420Z,16.90
2018-07-23T05:28:16.518Z,17.00
2018-07-23T05:30:44.477Z,16.90
2018-07-23T05:33:12.675Z,17.00
2018-07-23T05:35:40.830Z,17.00
2018-07-23T05:38:08.912Z,17.10
2018-07-23T05:40:37.091Z,17.30
2018-07-23T05:43:05.466Z,17.20
2018-07-23T05:45:33.610Z,17.40
2018-07-23T05:48:01.715Z,17.40
2018-07-23T05:50:29.961Z,17.50
2018-07-23T05:55:26.018Z,17.70
2018-07-23T05:57:54.512Z,17.80
2018-07-23T06:00:22.575Z,18.00
2018-07-23T06:02:50.675Z,18.00
2018-07-23T06:05:18.748Z,18.00
2018-07-23T06:07:46.784Z,18.00
2018-07-23T06:10:15.111Z,17.90
2018-07-23T06:12:43.235Z,17.70
2018-07-23T06:15:11.653Z,17.70
2018-07-23T06:17:39.723Z,17.90
2018-07-23T06:20:08.720Z,18.00
2018-07-23T06:22:37.058Z,18.10
2018-07-23T06:27:33.437Z,18.00
2018-07-23T06:30:01.650Z,18.00
2018-07-23T06:32:29.765Z,18.10
2018-07-23T06:34:58.076Z,18.20
2018-07-23T06:37:26.239Z,18.10
2018-07-23T06:39:54.324Z,18.00
2018-07-23T06:42:22.396Z,17.90
2018-07-23T06:44:50.646Z,17.80
2018-07-23T06:47:18.753Z,17.80
2018-07-23T06:49:46.798Z,17.80
2018-07-23T06:52:14.894Z,17.90
2018-07-23T06:54:42.927Z,18.20
2018-07-23T06:59:39.026Z,18.90
2018-07-23T07:02:07.164Z,19.10
2018-07-23T07:04:35.254Z,19.30
2018-07-23T07:07:03.746Z,19.20
2018-07-23T07:09:31.893Z,19.30
2018-07-23T07:11:59.979Z,19.20
2018-07-23T07:14:28.050Z,19.10
2018-07-23T07:16:56.232Z,19.10
2018-07-23T07:19:24.290Z,19.20
2018-07-23T07:21:52.497Z,19.60
2018-07-23T07:24:20.566Z,20.10
2018-07-23T07:26:48.712Z,20.50
2018-07-23T07:29:16.807Z,20.50
2018-07-23T07:31:45.098Z,20.40
2018-07-23T07:34:13.241Z,20.20
2018-07-23T07:36:41.332Z,20.00
2018-07-23T07:39:11.164Z,19.70
2018-07-23T07:41:39.366Z,19.60
2018-07-23T07:44:08.130Z,19.60
2018-07-23T07:46:36.713Z,19.60
2018-07-23T07:49:04.900Z,19.50
2018-07-23T07:51:33.148Z,19.70
2018-07-23T07:54:01.205Z,20.00
2018-07-23T07:56:29.795Z,20.30
2018-07-23T07:58:57.863Z,20.50
2018-07-23T08:01:26.092Z,20.70
2018-07-23T08:03:54.141Z,21.00
2018-07-23T08:06:22.383Z,20.90
2018-07-23T08:08:50.607Z,20.60
2018-07-23T08:11:18.679Z,20.50
2018-07-23T08:13:47.036Z,20.50
2018-07-23T08:16:15.234Z,20.60
2018-07-23T08:18:43.472Z,20.70
2018-07-23T08:21:11.565Z,20.90
2018-07-23T08:23:39.640Z,20.90
2018-07-23T08:26:07.812Z,20.90
2018-07-23T08:28:35.988Z,21.00
2018-07-23T08:31:04.267Z,20.90
2018-07-23T08:33:32.455Z,20.90
2018-07-23T08:36:00.521Z,20.80
2018-07-23T08:38:28.818Z,20.90
2018-07-23T08:40:57.186Z,21.00
2018-07-23T08:43:25.361Z,21.00
2018-07-23T08:45:53.420Z,20.90
2018-07-23T08:48:21.464Z,21.10
2018-07-23T08:50:49.567Z,21.10
2018-07-23T08:53:17.629Z,20.70
2018-07-23T08:55:45.736Z,20.80
2018-07-23T08:58:13.872Z,21.00
2018-07-23T09:00:42.068Z,21.30
2018-07-23T09:03:10.152Z,21.50
2018-07-23T09:05:38.309Z,21.40
2018-07-23T09:08:06.519Z,21.20
2018-07-23T09:10:34.578Z,21.10
2018-07-23T09:13:02.624Z,21.30
2018-07-23T09:15:30.814Z,21.40
2018-07-23T09:17:58.965Z,21.40
2018-07-23T09:20:27.073Z,21.20
2018-07-23T09:22:55.116Z,21.50
2018-07-23T09:25:26.880Z,22.00
2018-07-23T09:27:54.943Z,22.60
2018-07-23T09:30:28.393Z,23.30
2018-07-23T09:32:56.545Z,23.20
2018-07-23T09:35:24.597Z,23.10
2018-07-23T09:37:52.687Z,23.10
2018-07-23T09:40:20.831Z,23.40
2018-07-23T09:45:16.802Z,23.50
2018-07-23T09:47:44.900Z,23.90
2018-07-23T09:50:13.183Z,23.70
2018-07-23T09:52:41.364Z,23.50
2018-07-23T09:55:09.541Z,23.60
2018-07-23T09:57:37.580Z,23.90
2018-07-23T10:00:05.853Z,24.10
2018-07-23T10:02:33.929Z,24.80
2018-07-23T10:05:02.012Z,25.00
2018-07-23T10:07:30.168Z,24.90
2018-07-23T10:09:58.366Z,24.60
2018-07-23T10:12:26.507Z,24.30
2018-07-23T10:17:22.648Z,24.70
2018-07-23T10:19:51.111Z,24.90
2018-07-23T10:22:19.230Z,24.80
2018-07-23T10:24:47.323Z,24.30
2018-07-23T10:27:15.463Z,23.90
2018-07-23T10:29:43.780Z,24.20
2018-07-23T10:32:11.927Z,24.70
2018-07-23T10:34:40.189Z,24.80
2018-07-23T10:37:08.412Z,25.40
2018-07-23T10:39:36.550Z,25.80
2018-07-23T10:42:04.746Z,26.10
2018-07-23T10:44:32.928Z,25.70
2018-07-23T10:47:00.989Z,25.60
2018-07-23T10:49:29.074Z,25.60
2018-07-23T10:51:57.120Z,25.60
2018-07-23T10:54:25.208Z,25.30
2018-07-23T10:56:53.461Z,25.30
2018-07-23T10:59:21.775Z,25.10
2018-07-23T11:01:50.054Z,25.20
2018-07-23T11:04:18.248Z,25.60
2018-07-23T11:06:46.272Z,25.80
2018-07-23T11:09:14.484Z,26.00
2018-07-23T11:11:42.625Z,26.00
2018-07-23T11:14:10.725Z,25.50
2018-07-23T11:16:38.780Z,25.30
2018-07-23T11:19:07.084Z,25.60
2018-07-23T11:21:35.142Z,25.40
2018-07-23T11:24:03.231Z,25.40
2018-07-23T11:26:31.301Z,24.90
2018-07-23T11:28:59.382Z,24.40
2018-07-23T11:31:27.419Z,24.50
2018-07-23T11:33:55.517Z,25.10
2018-07-23T11:36:23.545Z,25.20
2018-07-23T11:41:19.513Z,25.30
2018-07-23T11:43:47.709Z,25.70
2018-07-23T11:46:24.425Z,25.90
2018-07-23T11:48:43.965Z,25.80
2018-07-23T11:51:12.210Z,25.90
2018-07-23T11:53:40.424Z,25.80
2018-07-23T11:56:08.454Z,25.60
2018-07-23T11:58:36.781Z,25.30
2018-07-23T12:01:04.835Z,25.30
2018-07-23T12:03:32.912Z,25.30
2018-07-23T12:06:01.084Z,25.10
2018-07-23T12:08:29.227Z,25.30
2018-07-23T12:10:57.385Z,25.60
2018-07-23T12:15:53.552Z,26.20
2018-07-23T12:18:21.758Z,26.60
2018-07-23T12:20:49.911Z,27.30
2018-07-23T12:23:18.006Z,27.30
2018-07-23T12:25:46.088Z,27.70
2018-07-23T12:28:14.120Z,27.50
2018-07-23T12:30:42.303Z,26.90
2018-07-23T12:33:10.369Z,26.80
2018-07-23T12:35:38.667Z,27.10
2018-07-23T12:38:06.722Z,27.20
2018-07-23T12:40:34.811Z,27.30
2018-07-23T12:43:02.873Z,27.40
2018-07-23T12:45:30.944Z,27.70
2018-07-23T12:47:59.082Z,27.80
2018-07-23T12:50:27.199Z,28.20
2018-07-23T12:52:55.284Z,28.40
2018-07-23T12:55:23.372Z,28.60
2018-07-23T12:57:51.534Z,28.60
2018-07-23T13:00:19.606Z,28.50
2018-07-23T13:02:47.785Z,28.40
2018-07-23T13:05:15.969Z,27.70
2018-07-23T13:07:44.018Z,27.20
2018-07-23T13:10:12.124Z,27.30
2018-07-23T13:12:40.286Z,27.10
2018-07-23T13:15:08.549Z,27.00
2018-07-23T13:17:36.734Z,26.60
2018-07-23T13:20:05.006Z,26.90
2018-07-23T13:22:33.183Z,26.90
2018-07-23T13:25:01.253Z,26.90
2018-07-23T13:27:29.405Z,27.00
2018-07-23T13:32:25.567Z,27.20
2018-07-23T13:34:53.761Z,27.10
2018-07-23T13:37:21.805Z,27.00
2018-07-23T13:39:50.112Z,27.10
2018-07-23T13:42:18.180Z,27.30
2018-07-23T13:44:46.244Z,27.30
2018-07-23T13:47:14.542Z,26.90
2018-07-23T13:49:42.601Z,26.70
2018-07-23T13:52:10.684Z,26.80
2018-07-23T13:54:38.828Z,26.80
2018-07-23T13:57:06.925Z,26.90
2018-07-23T13:59:34.968Z,26.50
2018-07-23T14:02:03.183Z,26.40
2018-07-23T14:04:31.231Z,26.10
2018-07-23T14:06:59.445Z,26.20
2018-07-23T14:09:27.477Z,26.70
2018-07-23T14:11:55.664Z,27.30
2018-07-23T14:14:23.726Z,27.30
2018-07-23T14:16:51.946Z,27.10
2018-07-23T14:19:20.020Z,27.10
2018-07-23T14:21:48.159Z,26.80
2018-07-23T14:24:16.249Z,26.60
2018-07-23T14:26:44.514Z,26.40
2018-07-23T14:29:12.616Z,26.30
2018-07-23T14:31:41.161Z,26.40
2018-07-23T14:34:09.508Z,26.60
2018-07-23T14:36:37.510Z,27.10
2018-07-23T14:39:08.933Z,26.90
2018-07-23T14:41:37.033Z,26.50
2018-07-23T14:44:05.317Z,26.40
2018-07-23T14:46:33.514Z,26.60
2018-07-23T14:49:01.808Z,26.80
2018-07-23T14:51:30.287Z,27.20
2018-07-23T14:53:58.432Z,27.10
2018-07-23T14:56:26.659Z,26.90
2018-07-23T14:58:54.854Z,27.10
2018-07-23T15:01:22.978Z,27.30
2018-07-23T15:03:51.025Z,27.30
2018-07-23T15:06:19.148Z,27.70
2018-07-23T15:08:47.298Z,27.80
2018-07-23T15:11:15.384Z,28.00
2018-07-23T15:13:43.426Z,27.80
2018-07-23T15:16:11.533Z,27.60
2018-07-23T15:18:39.591Z,27.50
2018-07-23T15:21:07.672Z,27.70
2018-07-23T15:23:36.464Z,27.50
2018-07-23T15:26:04.549Z,27.40
2018-07-23T15:28:32.705Z,27.30
2018-07-23T15:31:00.755Z,27.40
2018-07-23T15:33:28.713Z,27.50
2018-07-23T15:35:56.676Z,27.80
2018-07-23T15:40:52.405Z,27.30
2018-07-23T15:43:20.401Z,27.20
2018-07-23T15:56:33.211Z,26.90
2018-07-23T15:59:01.476Z,26.30
2018-07-23T16:01:29.388Z,26.50
2018-07-23T16:03:57.868Z,26.80
2018-07-23T16:06:36.935Z,26.90
2018-07-23T16:14:41.716Z,26.70
2018-07-23T16:22:54.160Z,27.20
2018-07-23T16:30:17.676Z,27.40
2018-07-23T16:32:45.620Z,27.30
2018-07-23T16:35:13.581Z,27.50
2018-07-23T16:37:41.547Z,27.60
2018-07-23T16:40:09.650Z,27.80
2018-07-23T16:42:37.640Z,27.90
2018-07-23T16:45:05.599Z,27.80
2018-07-23T16:50:01.313Z,27.70
2018-07-23T16:52:29.262Z,26.80
2018-07-23T16:54:57.351Z,26.40
2018-07-23T16:57:25.320Z,25.90
2018-07-23T16:59:53.286Z,25.70
2018-07-23T17:02:21.320Z,25.00
2018-07-23T17:04:49.371Z,24.20
2018-07-23T17:07:17.488Z,23.30
2018-07-23T17:09:45.523Z,22.00
2018-07-23T17:12:13.544Z,21.10
2018-07-23T17:14:41.556Z,20.20
2018-07-23T17:19:37.335Z,18.70
2018-07-23T17:22:05.311Z,18.20
2018-07-23T17:24:33.235Z,18.00
2018-07-23T17:27:01.161Z,18.10
2018-07-23T17:29:29.173Z,18.20
2018-07-23T17:31:57.092Z,18.30
2018-07-23T17:34:25.077Z,18.40
2018-07-23T17:36:53.061Z,18.40
2018-07-23T17:39:21.065Z,18.50
2018-07-23T17:41:49.553Z,18.70
2018-07-23T17:44:17.552Z,18.80
2018-07-23T17:46:45.456Z,18.80
2018-07-23T17:49:13.381Z,18.90
2018-07-23T17:51:41.344Z,19.00
2018-07-23T17:54:22.083Z,19.00
2018-07-23T17:56:50.452Z,19.00
2018-07-23T17:59:18.369Z,18.90
2018-07-23T18:01:46.305Z,19.00
2018-07-23T18:06:41.991Z,19.10
2018-07-23T18:09:11.739Z,19.20
2018-07-23T18:11:39.692Z,19.20
2018-07-23T18:14:08.075Z,19.00
2018-07-23T18:16:36.161Z,18.90
2018-07-23T18:19:04.080Z,19.00
2018-07-23T18:21:32.010Z,18.90
2018-07-23T18:23:59.935Z,18.90
2018-07-23T18:26:28.137Z,18.80
2018-07-23T18:31:24.958Z,18.80
2018-07-23T18:33:52.891Z,18.70
2018-07-23T18:38:48.808Z,18.70
2018-07-23T18:41:16.651Z,18.60
2018-07-23T18:43:44.956Z,18.50
2018-07-23T18:46:12.902Z,18.50
2018-07-23T18:49:19.560Z,18.50
2018-07-23T18:51:52.423Z,18.40
2018-07-23T18:56:56.704Z,18.40
2018-07-23T18:59:28.751Z,18.30
2018-07-23T19:02:01.015Z,18.30
2018-07-23T19:04:32.836Z,18.20
2018-07-23T19:07:04.354Z,18.20
2018-07-23T19:09:36.214Z,18.20
2018-07-23T19:12:08.489Z,18.20
2018-07-23T19:14:40.832Z,18.20
2018-07-23T19:17:14.257Z,18.20
2018-07-23T19:19:46.607Z,18.20
2018-07-23T19:22:19.066Z,18.10
2018-07-23T19:27:22.551Z,18.10
2018-07-23T19:29:54.533Z,18.10
2018-07-23T19:32:26.723Z,18.00
2018-07-23T19:40:01.266Z,18.00
2018-07-23T19:42:32.844Z,18.00
2018-07-23T19:45:06.182Z,18.00
2018-07-23T19:47:37.726Z,18.00
2018-07-23T19:50:09.529Z,17.90
2018-07-23T19:52:40.537Z,17.90
2018-07-23T19:55:12.298Z,17.90
2018-07-23T19:57:43.722Z,17.90
2018-07-23T20:00:14.326Z,17.80
2018-07-23T20:05:10.031Z,17.70
2018-07-23T20:07:37.908Z,17.60
2018-07-23T20:10:05.860Z,17.50
2018-07-23T20:12:33.778Z,17.50
2018-07-23T20:17:37.169Z,17.40
2018-07-23T20:20:06.562Z,17.40
2018-07-23T20:22:51.254Z,17.50
2018-07-23T20:25:19.172Z,17.50
2018-07-23T20:27:47.065Z,17.60
2018-07-23T20:30:15.004Z,17.70
2018-07-23T20:32:42.986Z,17.60
2018-07-23T20:35:10.998Z,17.60
2018-07-23T20:40:06.817Z,17.60
2018-07-23T20:42:34.725Z,17.60
2018-07-23T20:45:02.678Z,17.50
2018-07-23T20:47:30.600Z,17.50
2018-07-23T20:49:58.560Z,17.50
2018-07-23T20:52:26.536Z,17.50
2018-07-23T20:54:54.497Z,17.40
2018-07-23T20:57:22.453Z,17.40
2018-07-23T20:59:50.447Z,17.30
2018-07-23T21:02:18.405Z,17.30
2018-07-23T21:04:46.329Z,17.20
2018-07-23T21:07:14.256Z,17.20
2018-07-23T21:09:42.201Z,17.20
2018-07-23T21:12:10.181Z,17.20
2018-07-23T21:14:38.108Z,17.20
2018-07-23T21:17:06.124Z,17.20
2018-07-23T21:19:34.045Z,17.10
2018-07-23T21:22:01.998Z,17.10
2018-07-23T21:24:29.956Z,17.10
2018-07-23T21:26:57.897Z,17.10
2018-07-23T21:29:25.918Z,17.10
2018-07-23T21:31:53.880Z,17.00
2018-07-23T21:34:21.811Z,17.00
2018-07-23T21:36:49.704Z,17.00
2018-07-23T21:39:17.656Z,17.00
2018-07-23T21:41:45.587Z,16.90
2018-07-23T21:44:13.520Z,16.90
2018-07-23T21:46:41.536Z,16.80
2018-07-23T21:49:09.547Z,16.90
2018-07-23T21:51:37.496Z,16.80
2018-07-23T21:56:33.432Z,16.80
2018-07-23T21:59:01.398Z,16.80
2018-07-23T22:03:57.209Z,16.70
2018-07-23T22:06:25.235Z,16.70
2018-07-23T22:08:55.489Z,16.80
2018-07-23T22:11:23.482Z,16.70
2018-07-23T22:13:51.453Z,16.60
2018-07-23T22:16:19.395Z,16.60
2018-07-23T22:18:47.328Z,16.60
2018-07-23T22:26:13.061Z,16.50
2018-07-23T22:28:41.129Z,16.40
2018-07-23T22:31:09.075Z,16.40
2018-07-23T22:33:37.016Z,16.30
2018-07-23T22:36:05.424Z,16.20
2018-07-23T22:38:33.360Z,16.10
2018-07-23T22:41:01.289Z,16.10
2018-07-23T22:43:29.250Z,16.10
2018-07-23T22:45:57.207Z,16.10
2018-07-23T22:48:25.121Z,16.10
2018-07-23T22:53:20.746Z,16.00
2018-07-23T22:55:48.693Z,16.00
2018-07-23T22:58:16.609Z,16.00
2018-07-23T23:05:40.002Z,15.90
2018-07-23T23:08:07.947Z,15.80
2018-07-23T23:10:35.848Z,15.70
2018-07-23T23:13:03.854Z,15.70
2018-07-23T23:15:31.805Z,15.70
2018-07-23T23:17:59.761Z,15.70
2018-07-23T23:20:27.677Z,15.70
2018-07-23T23:22:55.644Z,15.70
2018-07-23T23:25:23.698Z,15.70
2018-07-23T23:27:51.622Z,15.70
2018-07-23T23:35:15.109Z,15.70
2018-07-23T23:37:43.001Z,15.70
2018-07-23T23:42:38.763Z,15.60
2018-07-23T23:45:06.805Z,15.50
2018-07-23T23:50:02.512Z,15.30
2018-07-23T23:52:30.522Z,15.30
2018-07-23T23:54:58.412Z,15.30
2018-07-23T23:57:26.332Z,15.30
2018-07-23T23:59:54.220Z,15.30
